createdAt,value
2023-06-10T00:01:01.150Z,116.97
2023-06-10T00:03:27.996Z,122.00
2023-06-10T00:05:54.719Z,125.65
2023-06-10T00:08:21.137Z,118.25
2023-06-10T00:10:47.668Z,126.70
2023-06-10T00:13:14.079Z,129.55
2023-06-10T00:15:40.581Z,129.87
2023-06-10T00:18:07.163Z,125.32
2023-06-10T00:20:33.631Z,119.18
2023-06-10T00:23:00.077Z,116.63
2023-06-10T00:25:26.564Z,129.98
2023-06-10T00:27:52.961Z,120.40
2023-06-10T00:30:19.328Z,117.65
2023-06-10T00:32:46.401Z,110.80
2023-06-10T00:35:13.035Z,108.55
2023-06-10T00:37:39.714Z,128.05
2023-06-10T00:40:06.576Z,114.10
2023-06-10T00:42:33.589Z,114.45
2023-06-10T00:45:00.021Z,110.97
2023-06-10T00:47:26.842Z,110.78
2023-06-10T00:49:53.307Z,108.97
2023-06-10T00:52:20.607Z,98.80
2023-06-10T00:54:47.231Z,103.68
2023-06-10T00:57:13.636Z,100.00
2023-06-10T00:59:40.601Z,100.68
2023-06-10T01:02:07.176Z,105.57
2023-06-10T01:04:34.703Z,105.30
2023-06-10T01:07:04.243Z,101.53
2023-06-10T01:09:38.852Z,101.13
2023-06-10T01:12:17.763Z,98.43
2023-06-10T01:14:44.353Z,100.65
2023-06-10T01:17:11.058Z,93.63
2023-06-10T01:19:37.828Z,92.53
2023-06-10T01:22:04.751Z,98.60
2023-06-10T01:24:31.167Z,108.68
2023-06-10T01:27:00.029Z,103.82
2023-06-10T01:29:36.472Z,102.13
2023-06-10T01:32:05.553Z,101.43
2023-06-10T01:34:32.238Z,96.85
2023-06-10T01:36:59.304Z,94.07
2023-06-10T01:39:26.333Z,100.10
2023-06-10T01:41:53.421Z,90.00
2023-06-10T01:44:20.841Z,93.10
2023-06-10T01:46:47.282Z,89.22
2023-06-10T01:49:13.725Z,89.05
2023-06-10T01:51:40.411Z,92.20
2023-06-10T01:54:06.980Z,91.63
2023-06-10T01:56:33.677Z,90.38
2023-06-10T01:59:00.149Z,94.68
2023-06-10T02:01:27.125Z,102.20
2023-06-10T02:03:53.845Z,97.03
2023-06-10T02:06:20.774Z,105.73
2023-06-10T02:08:47.569Z,111.95
2023-06-10T02:11:14.033Z,104.53
2023-06-10T02:13:40.469Z,111.93
2023-06-10T02:16:06.950Z,109.28
2023-06-10T02:18:33.814Z,114.60
2023-06-10T02:21:00.295Z,112.22
2023-06-10T02:23:26.725Z,114.45
2023-06-10T02:25:53.137Z,106.97
2023-06-10T02:28:19.649Z,107.00
2023-06-10T02:30:46.032Z,113.57
2023-06-10T02:33:12.472Z,113.00
2023-06-10T02:35:39.536Z,112.45
2023-06-10T02:38:06.047Z,107.60
2023-06-10T02:40:32.503Z,113.10
2023-06-10T02:42:59.203Z,112.43
2023-06-10T02:45:26.112Z,108.75
2023-06-10T02:47:52.583Z,112.35
2023-06-10T02:50:19.272Z,116.70
2023-06-10T02:52:45.658Z,119.32
2023-06-10T02:55:12.208Z,114.53
2023-06-10T02:57:38.783Z,119.50
2023-06-10T03:00:05.458Z,117.88
2023-06-10T03:02:31.963Z,116.50
2023-06-10T03:04:58.541Z,111.57
2023-06-10T03:07:25.117Z,105.57
2023-06-10T03:09:51.530Z,104.80
2023-06-10T03:12:18.012Z,92.38
2023-06-10T03:14:44.409Z,82.45
2023-06-10T03:17:10.824Z,82.55
2023-06-10T03:19:37.368Z,83.90
2023-06-10T03:22:10.507Z,97.28
2023-06-10T03:24:37.071Z,92.82
2023-06-10T03:27:03.672Z,87.63
2023-06-10T03:29:30.053Z,92.75
2023-06-10T03:31:56.532Z,87.50
2023-06-10T03:34:23.652Z,79.90
2023-06-10T03:36:50.124Z,79.10
2023-06-10T03:39:16.501Z,54.28
2023-06-10T03:41:42.985Z,52.63
2023-06-10T03:44:09.385Z,57.87
2023-06-10T03:46:35.800Z,51.75
2023-06-10T03:49:02.241Z,51.20
2023-06-10T03:51:28.638Z,52.15
2023-06-10T03:53:55.035Z,52.95
2023-06-10T03:56:21.526Z,51.57
2023-06-10T03:58:48.022Z,45.35
2023-06-10T04:01:14.460Z,45.83
2023-06-10T04:03:40.977Z,41.30
2023-06-10T04:06:08.405Z,77.80
2023-06-10T04:08:34.890Z,64.07
2023-06-10T04:11:01.385Z,60.47
2023-06-10T04:13:27.779Z,59.15
2023-06-10T04:15:54.421Z,66.25
2023-06-10T04:18:21.043Z,50.08
2023-06-10T04:20:47.516Z,47.53
2023-06-10T04:23:13.959Z,49.45
2023-06-10T04:25:40.384Z,42.17
2023-06-10T04:28:06.782Z,36.75
2023-06-10T04:30:33.179Z,48.78
2023-06-10T04:32:59.699Z,30.57
2023-06-10T04:35:26.137Z,62.97
2023-06-10T04:37:52.531Z,53.90
2023-06-10T04:40:19.002Z,41.50
2023-06-10T04:42:45.401Z,19.23
2023-06-10T04:45:12.308Z,25.33
2023-06-10T04:47:39.121Z,29.88
2023-06-10T04:50:05.771Z,28.95
2023-06-10T04:52:32.162Z,16.77
2023-06-10T04:54:59.394Z,18.27
2023-06-10T04:57:25.930Z,15.53
2023-06-10T04:59:52.453Z,17.83
2023-06-10T05:02:19.054Z,14.23
2023-06-10T05:04:45.625Z,14.80
2023-06-10T05:07:12.088Z,13.40
2023-06-10T05:09:38.530Z,9.93
2023-06-10T05:12:05.497Z,9.02
2023-06-10T05:14:31.888Z,11.45
2023-06-10T05:16:58.337Z,10.45
2023-06-10T05:19:24.747Z,11.70
2023-06-10T05:21:51.157Z,13.27
2023-06-10T05:24:17.796Z,18.27
2023-06-10T05:26:44.259Z,15.95
2023-06-10T05:29:10.669Z,18.40
2023-06-10T05:31:37.386Z,14.68
2023-06-10T05:34:03.825Z,11.30
2023-06-10T05:36:30.205Z,8.13
2023-06-10T05:38:56.647Z,13.52
2023-06-10T05:41:23.093Z,7.07
2023-06-10T05:43:49.651Z,7.95
2023-06-10T05:46:16.319Z,8.87
2023-06-10T05:48:42.814Z,7.05
2023-06-10T05:51:09.236Z,8.48
2023-06-10T05:53:35.680Z,9.00
2023-06-10T05:56:02.118Z,9.45
2023-06-10T05:58:28.543Z,8.57
2023-06-10T06:00:55.017Z,12.65
2023-06-10T06:03:21.514Z,15.30
2023-06-10T06:05:48.326Z,10.70
2023-06-10T06:08:14.796Z,11.25
2023-06-10T06:10:41.282Z,8.90
2023-06-10T06:13:07.700Z,7.35
2023-06-10T06:15:34.134Z,10.00
2023-06-10T06:18:00.652Z,10.25
2023-06-10T06:20:27.110Z,12.88
2023-06-10T06:22:53.615Z,10.93
2023-06-10T06:25:20.078Z,12.93
2023-06-10T06:27:46.564Z,12.75
2023-06-10T06:30:13.165Z,9.40
2023-06-10T06:32:39.575Z,8.13
2023-06-10T06:35:06.324Z,7.67
2023-06-10T06:37:32.952Z,7.25
2023-06-10T06:40:01.483Z,8.65
2023-06-10T06:42:29.561Z,9.20
2023-06-10T06:44:56.157Z,10.63
2023-06-10T06:47:22.647Z,8.93
2023-06-10T06:49:49.324Z,8.35
2023-06-10T06:52:16.327Z,9.02
2023-06-10T06:54:42.690Z,14.23
2023-06-10T06:57:09.097Z,11.25
2023-06-10T06:59:35.772Z,10.30
2023-06-10T07:02:02.199Z,7.68
2023-06-10T07:04:28.616Z,8.57
2023-06-10T07:06:55.111Z,7.80
2023-06-10T07:09:21.491Z,8.57
2023-06-10T07:11:47.889Z,8.37
2023-06-10T07:14:14.400Z,8.48
2023-06-10T07:16:40.809Z,11.85
2023-06-10T07:19:07.233Z,8.20
2023-06-10T07:21:34.268Z,11.65
2023-06-10T07:24:01.157Z,9.30
2023-06-10T07:26:27.661Z,7.25
2023-06-10T07:28:54.097Z,8.30
2023-06-10T07:31:20.551Z,10.18
2023-06-10T07:33:47.706Z,7.82
2023-06-10T07:36:14.896Z,11.77
2023-06-10T07:38:41.313Z,8.77
2023-06-10T07:41:07.719Z,10.30
2023-06-10T07:43:34.180Z,8.88
2023-06-10T07:46:00.750Z,9.02
2023-06-10T07:48:27.240Z,60.40
2023-06-10T07:50:53.697Z,30.13
2023-06-10T07:53:20.122Z,10.20
2023-06-10T07:55:46.579Z,7.38
2023-06-10T07:58:13.096Z,8.02
2023-06-10T08:00:39.475Z,7.73
2023-06-10T08:03:05.915Z,7.38
2023-06-10T08:05:32.451Z,10.15
2023-06-10T08:08:00.709Z,9.00
2023-06-10T08:10:28.441Z,8.43
2023-06-10T08:12:54.919Z,7.50
2023-06-10T08:15:21.398Z,6.60
2023-06-10T08:17:47.828Z,8.65
2023-06-10T08:20:14.330Z,7.53
2023-06-10T08:22:40.723Z,7.60
2023-06-10T08:25:07.477Z,7.53
2023-06-10T08:27:34.126Z,6.70
2023-06-10T08:30:00.673Z,7.90
2023-06-10T08:32:27.343Z,7.00
2023-06-10T08:34:54.313Z,7.53
2023-06-10T08:37:20.689Z,6.93
2023-06-10T08:39:47.087Z,7.72
2023-06-10T08:42:19.616Z,8.52
2023-06-10T08:44:47.072Z,6.63
2023-06-10T08:47:17.720Z,7.75
2023-06-10T08:49:45.257Z,6.57
2023-06-10T08:52:14.978Z,6.65
2023-06-10T08:54:43.509Z,8.57
2023-06-10T08:57:10.040Z,7.32
2023-06-10T08:59:37.628Z,5.88
2023-06-10T09:02:05.587Z,6.17
2023-06-10T09:04:32.434Z,6.22
2023-06-10T09:06:59.789Z,6.82
2023-06-10T09:09:27.116Z,5.65
2023-06-10T09:11:53.644Z,6.88
2023-06-10T09:14:20.059Z,5.40
2023-06-10T09:16:46.469Z,5.72
2023-06-10T09:19:12.948Z,5.93
2023-06-10T09:21:39.338Z,6.60
2023-06-10T09:24:06.337Z,5.32
2023-06-10T09:26:32.832Z,5.33
2023-06-10T09:29:05.881Z,6.25
2023-06-10T09:31:32.780Z,7.38
2023-06-10T09:34:06.312Z,5.93
2023-06-10T09:36:33.952Z,6.28
2023-06-10T09:39:00.354Z,5.87
2023-06-10T09:41:45.870Z,6.78
2023-06-10T09:44:15.941Z,6.65
2023-06-10T09:46:43.021Z,5.50
2023-06-10T09:49:09.658Z,4.82
2023-06-10T09:51:36.113Z,5.70
2023-06-10T09:54:05.470Z,5.15
2023-06-10T09:56:35.873Z,5.55
2023-06-10T09:59:02.569Z,5.68
2023-06-10T10:01:29.011Z,5.90
2023-06-10T10:03:55.533Z,5.97
2023-06-10T10:06:22.127Z,5.13
2023-06-10T10:08:50.362Z,5.50
2023-06-10T10:11:21.601Z,5.63
2023-06-10T10:13:48.989Z,4.75
2023-06-10T10:16:16.487Z,5.07
2023-06-10T10:18:47.177Z,5.95
2023-06-10T10:21:14.251Z,6.55
2023-06-10T10:23:53.693Z,5.47
2023-06-10T10:26:22.035Z,5.93
2023-06-10T10:28:52.453Z,5.20
2023-06-10T10:31:20.223Z,6.20
2023-06-10T10:33:55.262Z,6.18
2023-06-10T10:36:21.869Z,5.20
2023-06-10T10:38:51.685Z,5.15
2023-06-10T10:41:19.945Z,5.70
2023-06-10T10:43:47.465Z,5.97
2023-06-10T10:46:15.610Z,6.72
2023-06-10T10:48:42.260Z,6.38
2023-06-10T10:51:09.174Z,7.10
2023-06-10T10:53:37.715Z,6.60
2023-06-10T10:56:08.035Z,5.65
2023-06-10T10:58:34.570Z,7.18
2023-06-10T11:01:01.136Z,6.30
2023-06-10T11:03:31.104Z,6.60
2023-06-10T11:06:00.429Z,6.47
2023-06-10T11:08:29.776Z,5.93
2023-06-10T11:10:56.272Z,7.35
2023-06-10T11:13:23.454Z,6.45
2023-06-10T11:15:50.831Z,4.53
2023-06-10T11:18:23.160Z,5.90
2023-06-10T11:20:49.701Z,5.43
2023-06-10T11:23:28.376Z,5.50
2023-06-10T11:26:13.313Z,6.28
2023-06-10T11:28:53.412Z,5.57
2023-06-10T11:31:20.641Z,6.27
2023-06-10T11:34:07.329Z,6.15
2023-06-10T11:36:41.244Z,5.32
2023-06-10T11:39:07.871Z,4.97
2023-06-10T11:41:35.196Z,5.90
2023-06-10T11:44:20.678Z,5.57
2023-06-10T11:46:48.831Z,4.93
2023-06-10T11:49:15.304Z,5.18
2023-06-10T11:51:42.127Z,4.82
2023-06-10T11:54:11.865Z,6.22
2023-06-10T11:56:38.278Z,4.63
2023-06-10T11:59:05.396Z,4.22
2023-06-10T12:01:32.604Z,5.63
2023-06-10T12:03:58.953Z,5.10
2023-06-10T12:06:25.628Z,4.85
2023-06-10T12:08:52.021Z,4.47
2023-06-10T12:11:18.471Z,5.22
2023-06-10T12:13:48.661Z,4.55
2023-06-10T12:16:15.217Z,5.50
2023-06-10T12:18:42.954Z,5.53
2023-06-10T12:21:18.570Z,4.47
2023-06-10T12:24:03.226Z,4.75
2023-06-10T12:26:39.857Z,4.65
2023-06-10T12:29:18.566Z,4.53
2023-06-10T12:31:53.923Z,5.13
2023-06-10T12:34:20.394Z,5.30
2023-06-10T12:36:50.265Z,5.25
2023-06-10T12:39:16.761Z,4.90
2023-06-10T12:41:48.316Z,4.35
2023-06-10T12:44:14.712Z,4.53
2023-06-10T12:46:41.148Z,5.23
2023-06-10T12:49:07.547Z,5.20
2023-06-10T12:51:33.932Z,5.63
2023-06-10T12:54:00.411Z,5.03
2023-06-10T12:56:26.904Z,6.32
2023-06-10T12:58:53.273Z,5.63
2023-06-10T13:01:19.796Z,5.22
2023-06-10T13:03:46.223Z,5.50
2023-06-10T13:06:12.879Z,5.32
2023-06-10T13:08:39.319Z,5.50
2023-06-10T13:11:05.689Z,6.37
2023-06-10T13:13:33.187Z,5.70
2023-06-10T13:15:59.595Z,6.35
2023-06-10T13:18:25.994Z,4.85
2023-06-10T13:20:52.384Z,5.80
2023-06-10T13:23:18.874Z,5.97
2023-06-10T13:25:45.256Z,4.47
2023-06-10T13:28:11.649Z,5.93
2023-06-10T13:30:38.201Z,5.75
2023-06-10T13:33:04.667Z,6.28
2023-06-10T13:35:31.076Z,5.17
2023-06-10T13:37:57.530Z,5.35
2023-06-10T13:40:23.909Z,5.10
2023-06-10T13:42:50.301Z,6.53
2023-06-10T13:45:17.013Z,6.35
2023-06-10T13:47:43.427Z,6.93
2023-06-10T13:50:10.016Z,6.43
2023-06-10T13:52:36.512Z,6.63
2023-06-10T13:55:02.957Z,4.82
2023-06-10T13:57:29.371Z,5.13
2023-06-10T13:59:55.836Z,4.07
2023-06-10T14:02:22.337Z,5.03
2023-06-10T14:04:49.515Z,4.30
2023-06-10T14:07:16.000Z,5.03
2023-06-10T14:09:42.434Z,5.63
2023-06-10T14:12:08.946Z,5.27
2023-06-10T14:14:35.395Z,5.10
2023-06-10T14:17:01.925Z,5.97
2023-06-10T14:19:28.400Z,5.85
2023-06-10T14:21:54.866Z,4.75
2023-06-10T14:24:21.364Z,6.63
2023-06-10T14:26:47.948Z,6.65
2023-06-10T14:29:14.518Z,7.20
2023-06-10T14:31:41.335Z,6.93
2023-06-10T14:34:07.756Z,6.25
2023-06-10T14:36:34.440Z,6.87
2023-06-10T14:39:00.840Z,7.53
2023-06-10T14:41:27.254Z,5.75
2023-06-10T14:43:53.783Z,4.32
2023-06-10T14:46:20.208Z,4.65
2023-06-10T14:48:46.593Z,6.00
2023-06-10T14:51:13.108Z,6.47
2023-06-10T14:53:39.536Z,6.50
2023-06-10T14:56:05.961Z,4.47
2023-06-10T14:58:32.560Z,5.07
2023-06-10T15:00:59.241Z,7.23
2023-06-10T15:03:25.694Z,5.85
2023-06-10T15:05:52.131Z,5.28
2023-06-10T15:08:18.580Z,5.57
2023-06-10T15:10:44.994Z,6.75
2023-06-10T15:13:11.479Z,8.10
2023-06-10T15:15:37.896Z,5.68
2023-06-10T15:18:04.446Z,8.60
2023-06-10T15:20:31.083Z,4.68
2023-06-10T15:22:57.469Z,5.72
2023-06-10T15:27:53.238Z,7.18
2023-06-10T15:30:19.617Z,6.35
2023-06-10T15:32:46.054Z,7.35
2023-06-10T15:35:12.809Z,8.35
2023-06-10T15:37:39.460Z,9.57
2023-06-10T15:40:06.269Z,7.35
2023-06-10T15:42:32.827Z,6.85
2023-06-10T15:44:59.236Z,7.78
2023-06-10T15:47:25.634Z,7.15
2023-06-10T15:49:52.105Z,9.73
2023-06-10T15:52:18.512Z,11.45
2023-06-10T15:54:44.909Z,12.63
2023-06-10T15:57:11.354Z,8.57
2023-06-10T15:59:37.758Z,13.23
2023-06-10T16:02:04.361Z,16.27
2023-06-10T16:04:30.818Z,13.60
2023-06-10T16:06:57.280Z,13.52
2023-06-10T16:09:23.758Z,21.90
2023-06-10T16:11:50.202Z,19.80
2023-06-10T16:14:16.584Z,24.33
2023-06-10T16:16:43.038Z,31.55
2023-06-10T16:19:09.522Z,32.90
2023-06-10T16:21:35.927Z,36.28
2023-06-10T16:24:02.359Z,37.40
2023-06-10T16:26:28.925Z,40.63
2023-06-10T16:28:55.358Z,42.80
2023-06-10T16:31:21.838Z,47.55
2023-06-10T16:33:48.331Z,47.78
2023-06-10T16:36:14.738Z,49.78
2023-06-10T16:38:41.165Z,52.07
2023-06-10T16:41:07.625Z,53.80
2023-06-10T16:43:34.017Z,56.33
2023-06-10T16:46:00.432Z,55.28
2023-06-10T16:48:26.922Z,57.53
2023-06-10T16:50:53.404Z,60.53
2023-06-10T16:53:19.796Z,62.85
2023-06-10T16:55:46.229Z,61.35
2023-06-10T16:58:12.627Z,62.55
2023-06-10T17:00:39.116Z,63.60
2023-06-10T17:03:05.732Z,62.83
2023-06-10T17:05:32.440Z,66.05
2023-06-10T17:07:58.943Z,67.57
2023-06-10T17:10:25.425Z,65.97
2023-06-10T17:12:51.816Z,63.03
2023-06-10T17:15:18.307Z,65.50
2023-06-10T17:17:44.899Z,66.25
2023-06-10T17:20:11.671Z,66.63
2023-06-10T17:22:38.055Z,67.10
2023-06-10T17:25:04.771Z,68.20
2023-06-10T17:27:31.185Z,67.27
2023-06-10T17:29:57.619Z,67.03
2023-06-10T17:32:24.169Z,69.20
2023-06-10T17:34:50.593Z,68.05
2023-06-10T17:37:16.979Z,69.15
2023-06-10T17:39:43.430Z,66.43
2023-06-10T17:42:09.844Z,66.25
2023-06-10T17:44:36.258Z,68.40
2023-06-10T17:47:03.024Z,69.68
2023-06-10T17:49:33.137Z,72.45
2023-06-10T17:51:59.883Z,72.63
2023-06-10T17:54:26.328Z,71.20
2023-06-10T17:56:52.720Z,74.50
2023-06-10T17:59:19.103Z,70.05
2023-06-10T18:01:45.554Z,71.82
2023-06-10T18:04:12.105Z,70.97
2023-06-10T18:06:38.916Z,72.53
2023-06-10T18:09:05.607Z,70.53
2023-06-10T18:11:32.195Z,60.00
2023-06-10T18:13:58.604Z,54.70
2023-06-10T18:16:25.206Z,47.03
2023-06-10T18:18:51.644Z,49.67
2023-06-10T18:21:18.136Z,52.45
2023-06-10T18:23:44.673Z,51.10
2023-06-10T18:26:11.281Z,50.35
2023-06-10T18:28:37.684Z,51.10
2023-06-10T18:31:04.712Z,51.92
2023-06-10T18:33:31.151Z,53.33
2023-06-10T18:35:57.595Z,52.92
2023-06-10T18:38:24.713Z,53.80
2023-06-10T18:40:51.099Z,53.70
2023-06-10T18:43:17.478Z,54.92
2023-06-10T18:45:43.962Z,56.22
2023-06-10T18:48:10.702Z,54.03
2023-06-10T18:50:37.108Z,54.80
2023-06-10T18:53:03.552Z,55.43
2023-06-10T18:55:32.520Z,55.88
2023-06-10T18:57:59.742Z,56.95
2023-06-10T19:00:26.252Z,56.22
2023-06-10T19:02:52.796Z,55.85
2023-06-10T19:05:19.439Z,54.13
2023-06-10T19:07:46.061Z,54.35
2023-06-10T19:10:12.478Z,54.95
2023-06-10T19:12:38.882Z,56.35
2023-06-10T19:15:05.609Z,57.70
2023-06-10T19:17:32.097Z,57.27
2023-06-10T19:19:58.518Z,56.13
2023-06-10T19:22:25.711Z,59.25
2023-06-10T19:25:02.281Z,56.90
2023-06-10T19:27:29.105Z,55.40
2023-06-10T19:29:56.393Z,53.63
2023-06-10T19:32:22.824Z,51.85
2023-06-10T19:34:49.350Z,53.40
2023-06-10T19:37:15.906Z,51.72
2023-06-10T19:39:42.303Z,51.58
2023-06-10T19:42:11.439Z,51.03
2023-06-10T19:44:39.237Z,50.15
2023-06-10T19:47:05.909Z,51.97
2023-06-10T19:49:32.839Z,58.70
2023-06-10T19:51:59.236Z,78.20
2023-06-10T19:54:25.632Z,78.37
2023-06-10T19:56:52.072Z,246.98
2023-06-10T19:59:18.458Z,196.23
2023-06-10T20:01:44.874Z,108.72
2023-06-10T20:04:11.421Z,98.95
2023-06-10T20:06:37.944Z,169.40
2023-06-10T20:09:04.366Z,252.27
2023-06-10T20:11:30.793Z,175.48
2023-06-10T20:13:57.204Z,161.38
2023-06-10T20:16:23.681Z,143.82
2023-06-10T20:18:51.008Z,153.50
2023-06-10T20:21:19.824Z,122.60
2023-06-10T20:23:47.086Z,91.65
2023-06-10T20:26:13.720Z,117.45
2023-06-10T20:28:40.454Z,171.73
2023-06-10T20:31:06.979Z,176.00
2023-06-10T20:33:33.384Z,173.02
2023-06-10T20:35:59.770Z,137.32
2023-06-10T20:38:26.183Z,155.30
2023-06-10T20:40:52.593Z,109.10
2023-06-10T20:43:19.009Z,129.63
2023-06-10T20:45:45.673Z,230.43
2023-06-10T20:48:12.199Z,224.55
2023-06-10T20:50:38.624Z,226.35
2023-06-10T20:53:05.108Z,196.30
2023-06-10T20:55:31.514Z,158.30
2023-06-10T20:57:57.942Z,189.10
2023-06-10T21:00:24.374Z,224.05
2023-06-10T21:02:50.813Z,242.30
2023-06-10T21:05:18.061Z,254.00
2023-06-10T21:07:44.646Z,206.77
2023-06-10T21:10:11.412Z,214.07
2023-06-10T21:12:38.006Z,224.35
2023-06-10T21:15:05.000Z,204.15
2023-06-10T21:17:31.460Z,280.05
2023-06-10T21:19:57.909Z,307.10
2023-06-10T21:22:24.376Z,196.10
2023-06-10T21:24:50.762Z,287.38
2023-06-10T21:27:17.185Z,185.93
2023-06-10T21:29:44.060Z,186.25
2023-06-10T21:32:11.248Z,255.27
2023-06-10T21:34:37.778Z,332.67
2023-06-10T21:37:04.419Z,168.90
2023-06-10T21:39:30.807Z,130.80
2023-06-10T21:41:57.207Z,153.13
2023-06-10T21:44:24.059Z,182.57
2023-06-10T21:46:50.463Z,158.30
2023-06-10T21:49:16.918Z,270.63
2023-06-10T21:51:43.380Z,226.23
2023-06-10T21:54:09.760Z,151.73
2023-06-10T21:56:36.188Z,156.37
2023-06-10T21:59:02.637Z,61.95
2023-06-10T22:01:30.146Z,46.53
2023-06-10T22:03:56.769Z,48.97
2023-06-10T22:06:23.261Z,168.00
2023-06-10T22:08:49.977Z,254.27
2023-06-10T22:11:16.386Z,206.13
2023-06-10T22:13:43.062Z,234.27
2023-06-10T22:16:09.456Z,157.32
2023-06-10T22:18:35.852Z,159.43
2023-06-10T22:21:02.322Z,235.93
2023-06-10T22:23:28.726Z,162.98
2023-06-10T22:25:55.138Z,180.60
2023-06-10T22:28:21.582Z,198.10
2023-06-10T22:30:48.014Z,152.32
2023-06-10T22:33:14.462Z,148.77
2023-06-10T22:35:40.887Z,213.43
2023-06-10T22:38:07.414Z,212.73
2023-06-10T22:40:33.818Z,203.60
2023-06-10T22:43:00.297Z,206.73
2023-06-10T22:45:26.691Z,159.73
2023-06-10T22:47:53.161Z,151.10
2023-06-10T22:50:19.634Z,182.88
2023-06-10T22:52:46.036Z,158.70
2023-06-10T22:55:12.674Z,156.52
2023-06-10T22:57:39.473Z,110.03
2023-06-10T23:00:06.273Z,115.75
2023-06-10T23:02:32.762Z,120.82
2023-06-10T23:04:59.229Z,115.97
2023-06-10T23:07:26.667Z,121.07
2023-06-10T23:09:53.141Z,137.00
2023-06-10T23:12:19.554Z,130.27
2023-06-10T23:14:45.996Z,250.05
2023-06-10T23:17:12.396Z,257.48
2023-06-10T23:19:39.249Z,324.63
2023-06-10T23:22:05.666Z,96.13
2023-06-10T23:24:32.381Z,115.43
2023-06-10T23:27:02.253Z,101.60
2023-06-10T23:29:28.925Z,118.05
2023-06-10T23:31:55.657Z,128.23
2023-06-10T23:34:22.323Z,129.40
2023-06-10T23:36:48.769Z,134.82
2023-06-10T23:39:15.563Z,155.48
2023-06-10T23:41:42.523Z,145.18
2023-06-10T23:44:09.015Z,137.65
2023-06-10T23:46:35.944Z,136.47
2023-06-10T23:49:02.572Z,142.88
2023-06-10T23:51:28.980Z,148.43
2023-06-10T23:53:55.372Z,151.23
2023-06-10T23:56:21.809Z,156.25
2023-06-10T23:58:48.388Z,163.67
